Time;durP1;ratioP1;P1;durP2;ratioP2;P2;SDS_P1;SDS_P2;PMS_P1;PMS_P2;Temp;Humidity;BMP_temperature;BMP_pressure;BME280_temperature;BME280_humidity;BME280_pressure;Samples;Min_cycle;Max_cycle;Signal;HPM_P1;HPM_P2
2023/01/31 00:02:36;;;;;;;;;;;;;;;4.49;69.06;100103.34;5404323;32;34244;-81
2023/01/31 00:05:38;;;;;;;;;;;;;;;4.21;68.17;100105.59;5399506;32;34472;-82
2023/01/31 00:08:41;;;;;;;;;;;;;;;4.81;65.81;100096.66;5417487;32;34160;-82
2023/01/31 00:11:42;;;;;;;;;;;;;;;3.95;68.81;100098.25;5401331;32;36466;-78
2023/01/31 00:14:44;;;;;;;;;;;;;;;4.35;67.17;100087.13;5413165;32;34897;-81
2023/01/31 00:17:46;;;;;;;;;;;;;;;4.61;66.47;100082.28;5391006;32;35134;-82
2023/01/31 00:20:48;;;;;;;;;;;;;;;4.01;67.97;100095.53;5402512;32;36565;-81
2023/01/31 00:23:51;;;;;;;;;;;;;;;4.23;67.72;100109.00;5394995;32;36714;-82
2023/01/31 00:26:55;;;;;;;;;;;;;;;4.60;67.33;100090.12;5397300;32;35519;-81
2023/01/31 00:29:57;;;;;;;;;;;;;;;4.26;68.58;100079.50;5418764;32;36620;-81
2023/01/31 00:32:59;;;;;;;;;;;;;;;4.41;69.33;100096.56;5393213;32;35802;-82
2023/01/31 00:36:05;;;;;;;;;;;;;;;3.95;71.98;100086.97;5421673;32;35354;-80
2023/01/31 00:39:08;;;;;;;;;;;;;;;3.79;72.26;100076.81;5395621;32;35156;-81
2023/01/31 00:42:10;;;;;;;;;;;;;;;3.74;72.33;100062.22;5403584;32;35100;-80
2023/01/31 00:45:12;;;;;;;;;;;;;;;3.59;74.14;100062.44;5395359;32;35061;-83
2023/01/31 00:48:14;;;;;;;;;;;;;;;4.94;68.84;100045.16;5398542;32;45354;-82
2023/01/31 00:51:15;;;;;;;;;;;;;;;4.52;68.21;100060.81;5423775;32;35252;-82
2023/01/31 00:54:17;;;;;;;;;;;;;;;3.98;69.87;100068.72;5399025;32;35030;-81
2023/01/31 00:57:19;;;;;;;;;;;;;;;4.13;68.50;100054.59;5421466;32;34907;-81
2023/01/31 01:00:21;;;;;;;;;;;;;;;4.56;66.26;100057.22;5399290;32;34345;-82
2023/01/31 01:03:23;;;;;;;;;;;;;;;4.16;67.30;100068.41;5413682;32;35373;-84
2023/01/31 01:06:26;;;;;;;;;;;;;;;4.42;66.72;100064.44;5402564;32;35534;-83
2023/01/31 01:09:27;;;;;;;;;;;;;;;4.22;66.93;100057.87;5399303;32;35249;-81
2023/01/31 01:12:30;;;;;;;;;;;;;;;4.43;65.55;100064.41;5418229;32;34364;-81
2023/01/31 01:15:32;;;;;;;;;;;;;;;4.34;65.40;100060.25;5394467;32;36557;-80
2023/01/31 01:18:34;;;;;;;;;;;;;;;4.17;64.76;100064.91;5407034;32;35463;-83
2023/01/31 01:21:40;;;;;;;;;;;;;;;4.62;63.24;100054.50;5384552;32;34400;-82
2023/01/31 01:24:42;;;;;;;;;;;;;;;4.78;62.74;100042.91;5407695;32;35427;-80
2023/01/31 01:27:44;;;;;;;;;;;;;;;4.50;63.44;100054.75;5408933;32;45376;-82
2023/01/31 01:30:46;;;;;;;;;;;;;;;4.29;63.63;100062.06;5401668;32;36465;-81
2023/01/31 01:33:48;;;;;;;;;;;;;;;4.27;63.89;100057.81;5419783;32;36088;-83
2023/01/31 01:36:50;;;;;;;;;;;;;;;4.41;63.41;100045.38;5400956;32;34198;-82
2023/01/31 01:39:52;;;;;;;;;;;;;;;4.43;63.13;100058.34;5415384;32;34591;-82
2023/01/31 01:42:54;;;;;;;;;;;;;;;4.48;62.71;100046.12;5381702;32;35334;-81
2023/01/31 01:45:56;;;;;;;;;;;;;;;4.43;62.76;100067.00;5410282;32;34561;-83
2023/01/31 01:49:13;;;;;;;;;;;;;;;4.09;63.60;100061.59;5403612;32;35895;-82
2023/01/31 01:52:15;;;;;;;;;;;;;;;4.41;63.11;100080.97;5399324;32;44603;-81
2023/01/31 01:55:19;;;;;;;;;;;;;;;4.38;62.56;100070.59;5403753;32;34663;-81
2023/01/31 01:58:24;;;;;;;;;;;;;;;4.07;63.81;100082.44;5398046;32;36418;-81
2023/01/31 02:01:28;;;;;;;;;;;;;;;4.31;63.63;100077.66;5418851;32;37521;-82
2023/01/31 02:04:33;;;;;;;;;;;;;;;3.88;64.41;100088.81;5400794;32;34944;-81
2023/01/31 02:07:35;;;;;;;;;;;;;;;4.15;63.95;100110.91;5394935;32;34432;-80
2023/01/31 02:10:39;;;;;;;;;;;;;;;4.17;63.76;100114.31;5420482;32;35333;-81
2023/01/31 02:13:41;;;;;;;;;;;;;;;4.23;63.50;100123.78;5395386;32;34806;-81
2023/01/31 02:16:43;;;;;;;;;;;;;;;4.35;63.43;100124.41;5409055;32;44945;-80
2023/01/31 02:20:00;;;;;;;;;;;;;;;4.15;63.18;100130.84;5396937;32;34868;-81
2023/01/31 02:23:23;;;;;;;;;;;;;;;4.24;63.40;100135.87;5403443;32;35017;-81
2023/01/31 02:26:34;;;;;;;;;;;;;;;4.17;63.61;100134.28;5395826;32;34260;-80
2023/01/31 02:29:45;;;;;;;;;;;;;;;4.66;62.19;100136.00;5399282;32;34066;-82
2023/01/31 02:32:59;;;;;;;;;;;;;;;4.14;63.90;100135.19;5415530;32;47053;-81
2023/01/31 02:36:16;;;;;;;;;;;;;;;4.15;64.10;100149.91;5405729;32;34269;-81
2023/01/31 02:39:38;;;;;;;;;;;;;;;4.22;63.89;100146.31;5392297;32;44715;-81
2023/01/31 02:42:40;;;;;;;;;;;;;;;4.59;62.90;100132.66;5399075;32;34071;-81
2023/01/31 02:45:45;;;;;;;;;;;;;;;4.35;62.82;100128.75;5381418;32;35958;-80
2023/01/31 02:48:54;;;;;;;;;;;;;;;4.60;61.70;100129.19;5415547;32;47962;-81
2023/01/31 02:52:15;;;;;;;;;;;;;;;4.66;61.93;100123.00;5388951;32;34254;-81
2023/01/31 02:59:02;;;;;;;;;;;;;;;4.42;62.00;100112.16;5415161;32;34469;-82
2023/01/31 03:02:04;;;;;;;;;;;;;;;4.32;61.95;100136.63;5394822;32;34289;-81
2023/01/31 03:05:06;;;;;;;;;;;;;;;4.58;61.72;100157.84;5412600;32;33549;-81
2023/01/31 03:08:08;;;;;;;;;;;;;;;4.35;61.98;100145.22;5399889;32;34640;-81
2023/01/31 03:11:10;;;;;;;;;;;;;;;4.43;61.96;100157.25;5398542;32;34236;-81
2023/01/31 03:14:15;;;;;;;;;;;;;;;4.30;62.33;100161.78;5411670;32;34837;-81
2023/01/31 03:17:32;;;;;;;;;;;;;;;4.54;61.46;100168.31;5395343;32;43325;-81
2023/01/31 03:20:42;;;;;;;;;;;;;;;4.56;61.61;100176.97;5411139;32;34165;-80
2023/01/31 03:23:46;;;;;;;;;;;;;;;4.11;62.68;100184.66;5394103;32;44353;-81
2023/01/31 03:26:48;;;;;;;;;;;;;;;4.49;62.02;100180.56;5406145;32;34692;-81
2023/01/31 03:29:50;;;;;;;;;;;;;;;3.91;63.45;100197.09;5411565;32;35598;-81
2023/01/31 03:32:53;;;;;;;;;;;;;;;4.36;62.38;100182.50;5396282;32;34820;-81
2023/01/31 03:36:15;;;;;;;;;;;;;;;4.77;61.05;100186.16;5419177;32;34844;-81
2023/01/31 03:39:17;;;;;;;;;;;;;;;4.60;61.15;100183.84;5385036;32;44675;-79
2023/01/31 03:42:24;;;;;;;;;;;;;;;4.48;61.13;100189.25;5399681;32;34840;-82
2023/01/31 03:45:37;;;;;;;;;;;;;;;5.05;59.70;100191.69;5384375;32;35509;-80
2023/01/31 03:48:40;;;;;;;;;;;;;;;4.38;61.44;100216.31;5396337;32;33869;-81
2023/01/31 03:51:46;;;;;;;;;;;;;;;4.77;60.79;100204.38;5419041;32;35569;-81
2023/01/31 03:54:51;;;;;;;;;;;;;;;4.33;61.77;100211.19;5397346;32;34662;-80
2023/01/31 03:57:53;;;;;;;;;;;;;;;4.19;61.71;100227.03;5413941;32;35386;-81
2023/01/31 04:00:56;;;;;;;;;;;;;;;4.19;62.22;100219.22;5402508;32;35078;-81
2023/01/31 04:04:00;;;;;;;;;;;;;;;4.15;62.18;100216.69;5391934;32;35540;-81
2023/01/31 04:07:02;;;;;;;;;;;;;;;4.54;60.82;100220.37;5411700;32;35437;-81
2023/01/31 04:10:04;;;;;;;;;;;;;;;4.65;60.83;100207.19;5399154;32;34169;-82
2023/01/31 04:13:06;;;;;;;;;;;;;;;4.11;62.02;100221.06;5397971;32;33050;-81
2023/01/31 04:16:08;;;;;;;;;;;;;;;4.17;62.11;100235.72;5392232;32;34919;-82
2023/01/31 04:19:10;;;;;;;;;;;;;;;4.17;62.27;100233.97;5393637;32;34147;-81
2023/01/31 04:22:12;;;;;;;;;;;;;;;4.43;61.69;100248.31;5382801;32;37481;-80
2023/01/31 04:25:14;;;;;;;;;;;;;;;4.20;61.90;100254.75;5402828;32;35210;-81
2023/01/31 04:28:17;;;;;;;;;;;;;;;4.61;61.52;100266.25;5413510;32;35304;-81
2023/01/31 04:31:19;;;;;;;;;;;;;;;3.88;63.96;100257.81;5391178;32;32953;-81
2023/01/31 04:34:21;;;;;;;;;;;;;;;4.19;63.22;100265.19;5412040;32;34805;-81
2023/01/31 04:37:23;;;;;;;;;;;;;;;4.21;63.46;100266.03;5385780;32;34827;-81
2023/01/31 04:40:24;;;;;;;;;;;;;;;4.31;63.58;100257.19;5417454;32;36322;-80
2023/01/31 04:43:26;;;;;;;;;;;;;;;4.08;64.71;100266.19;5365407;32;35442;-81
2023/01/31 04:46:29;;;;;;;;;;;;;;;3.89;65.42;100276.88;5400551;32;35646;-81
2023/01/31 04:49:31;;;;;;;;;;;;;;;4.08;65.75;100281.81;5414020;32;35290;-80
2023/01/31 04:52:33;;;;;;;;;;;;;;;3.97;66.49;100280.22;5400003;32;36153;-80
2023/01/31 04:55:35;;;;;;;;;;;;;;;3.68;67.31;100296.22;5405308;32;34620;-81
2023/01/31 04:58:37;;;;;;;;;;;;;;;3.94;66.83;100303.69;5397372;32;37569;-81
2023/01/31 05:01:40;;;;;;;;;;;;;;;3.84;67.35;100312.47;5418667;32;33243;-81
2023/01/31 05:04:42;;;;;;;;;;;;;;;4.00;67.52;100311.41;5401396;32;37804;-82
2023/01/31 05:07:44;;;;;;;;;;;;;;;3.88;68.46;100319.38;5393993;32;34200;-81
2023/01/31 05:10:47;;;;;;;;;;;;;;;3.93;68.96;100333.16;5418427;32;34400;-82
2023/01/31 05:13:49;;;;;;;;;;;;;;;3.61;70.31;100337.03;5386420;32;33818;-81
2023/01/31 05:16:51;;;;;;;;;;;;;;;3.65;70.41;100343.03;5407262;32;35998;-80
2023/01/31 05:19:53;;;;;;;;;;;;;;;3.89;71.03;100334.09;5402012;32;34759;-82
2023/01/31 05:22:55;;;;;;;;;;;;;;;3.48;74.90;100338.03;5406819;32;34479;-81
2023/01/31 05:25:57;;;;;;;;;;;;;;;3.76;73.96;100326.44;5402104;32;34342;-81
2023/01/31 05:29:01;;;;;;;;;;;;;;;3.85;73.99;100335.00;5397450;32;35038;-82
2023/01/31 05:32:04;;;;;;;;;;;;;;;3.53;75.42;100331.91;5414106;32;34379;-80
2023/01/31 05:35:06;;;;;;;;;;;;;;;4.01;74.20;100323.53;5401770;32;34064;-80
2023/01/31 05:38:08;;;;;;;;;;;;;;;3.78;74.62;100324.66;5411538;32;34099;-80
2023/01/31 05:41:10;;;;;;;;;;;;;;;3.65;74.70;100324.84;5396450;32;34097;-81
2023/01/31 05:44:13;;;;;;;;;;;;;;;3.30;75.28;100331.31;5394636;32;35163;-81
2023/01/31 05:47:15;;;;;;;;;;;;;;;3.69;73.77;100324.78;5399778;32;46239;-81
2023/01/31 05:50:17;;;;;;;;;;;;;;;3.95;72.85;100321.00;5400354;32;35393;-81
2023/01/31 05:53:21;;;;;;;;;;;;;;;3.94;70.84;100320.16;5412420;32;34964;-83
2023/01/31 05:56:23;;;;;;;;;;;;;;;3.89;70.73;100314.16;5397161;32;35587;-81
2023/01/31 05:59:25;;;;;;;;;;;;;;;3.93;69.49;100320.16;5419099;32;34569;-81
2023/01/31 06:02:27;;;;;;;;;;;;;;;3.84;68.79;100320.28;5399090;32;35981;-81
2023/01/31 06:05:29;;;;;;;;;;;;;;;4.02;67.84;100309.62;5411685;32;35062;-81
2023/01/31 06:08:31;;;;;;;;;;;;;;;3.83;67.75;100314.22;5398820;32;37078;-82
2023/01/31 06:11:34;;;;;;;;;;;;;;;4.22;66.60;100317.16;5395142;32;34259;-81
2023/01/31 06:14:35;;;;;;;;;;;;;;;4.23;65.50;100311.94;5403989;32;34972;-81
2023/01/31 06:17:37;;;;;;;;;;;;;;;3.96;66.50;100318.37;5390975;32;35081;-80
2023/01/31 06:20:39;;;;;;;;;;;;;;;4.30;65.16;100321.38;5408810;32;34255;-81
2023/01/31 06:23:45;;;;;;;;;;;;;;;4.16;65.23;100328.50;5390751;32;36549;-81
2023/01/31 06:26:46;;;;;;;;;;;;;;;4.35;63.99;100332.56;5403403;32;43943;-83
2023/01/31 06:29:49;;;;;;;;;;;;;;;4.31;64.37;100345.63;5404010;32;35191;-82
2023/01/31 06:32:51;;;;;;;;;;;;;;;3.99;64.36;100351.28;5391967;32;34375;-78
2023/01/31 06:35:57;;;;;;;;;;;;;;;3.87;64.16;100364.47;5411857;32;35703;-79
2023/01/31 06:39:00;;;;;;;;;;;;;;;3.74;64.70;100369.81;5396169;32;35245;-81
2023/01/31 06:42:02;;;;;;;;;;;;;;;3.98;63.27;100358.22;5398014;32;34858;-79
2023/01/31 06:45:04;;;;;;;;;;;;;;;4.31;62.73;100356.91;5385004;32;34930;-80
2023/01/31 06:48:07;;;;;;;;;;;;;;;4.51;62.25;100368.81;5400761;32;34068;-80
2023/01/31 06:51:09;;;;;;;;;;;;;;;4.51;63.05;100374.88;5403691;32;34286;-78
2023/01/31 06:54:11;;;;;;;;;;;;;;;4.31;61.74;100372.53;5395314;32;35119;-79
2023/01/31 06:57:13;;;;;;;;;;;;;;;5.03;59.73;100378.41;5404772;32;44110;-70
2023/01/31 07:00:15;;;;;;;;;;;;;;;5.17;59.02;100376.44;5399833;32;34277;-75
2023/01/31 07:03:18;;;;;;;;;;;;;;;4.51;61.25;100390.50;5407785;32;35303;-71
2023/01/31 07:06:21;;;;;;;;;;;;;;;4.25;62.20;100392.56;5390093;32;34315;-71
2023/01/31 07:09:26;;;;;;;;;;;;;;;5.32;58.73;100401.34;5396032;32;34949;-75
2023/01/31 07:12:28;;;;;;;;;;;;;;;4.27;60.91;100403.81;5397195;32;34414;-89
2023/01/31 07:15:31;;;;;;;;;;;;;;;4.66;60.78;100405.00;5388375;32;34483;-85
2023/01/31 07:18:33;;;;;;;;;;;;;;;4.85;59.21;100392.56;5389270;32;34264;-73
2023/01/31 07:21:35;;;;;;;;;;;;;;;5.34;59.09;100416.06;5382407;32;33226;-77
2023/01/31 07:24:37;;;;;;;;;;;;;;;4.71;60.00;100407.56;5407010;32;34090;-78
2023/01/31 07:27:40;;;;;;;;;;;;;;;5.90;56.69;100416.78;5385813;32;35385;-77
2023/01/31 07:30:42;;;;;;;;;;;;;;;4.85;58.92;100419.47;5381018;32;35518;-74
2023/01/31 07:33:44;;;;;;;;;;;;;;;5.28;58.11;100436.16;5413413;32;44596;-82
2023/01/31 07:36:49;;;;;;;;;;;;;;;4.93;59.58;100448.00;5394537;32;34789;-78
2023/01/31 07:39:51;;;;;;;;;;;;;;;5.81;56.74;100443.06;5409187;32;35604;-73
2023/01/31 07:42:57;;;;;;;;;;;;;;;6.17;56.43;100445.84;5368978;32;34246;-75
2023/01/31 07:45:59;;;;;;;;;;;;;;;4.79;58.37;100457.78;5398837;32;34153;-74
2023/01/31 07:49:01;;;;;;;;;;;;;;;4.72;58.60;100457.00;5398263;32;34159;-77
2023/01/31 07:52:03;;;;;;;;;;;;;;;4.84;59.48;100455.97;5394338;32;35853;-76
2023/01/31 07:55:05;;;;;;;;;;;;;;;4.91;57.66;100467.16;5401008;32;33966;-83
2023/01/31 07:58:07;;;;;;;;;;;;;;;5.36;56.79;100466.44;5386696;32;34205;-73
2023/01/31 08:04:51;;;;;;;;;;;;;;;5.08;57.04;100471.19;5393165;32;35771;-76
2023/01/31 08:08:09;;;;;;;;;;;;;;;4.85;57.68;100474.16;5394840;32;36771;-81
2023/01/31 08:11:13;;;;;;;;;;;;;;;5.11;57.28;100483.34;5405522;32;45793;-86
2023/01/31 08:14:15;;;;;;;;;;;;;;;5.14;57.41;100498.91;5397197;32;34188;-82
2023/01/31 08:17:17;;;;;;;;;;;;;;;4.80;58.26;100493.34;5405479;32;36296;-84
2023/01/31 08:20:19;;;;;;;;;;;;;;;5.27;57.23;100502.19;5399373;32;35683;-83
2023/01/31 08:23:21;;;;;;;;;;;;;;;5.42;56.59;100510.66;5412081;32;34216;-74
2023/01/31 08:26:23;;;;;;;;;;;;;;;4.45;59.46;100520.69;5389311;32;35787;-73
2023/01/31 08:29:26;;;;;;;;;;;;;;;4.56;58.43;100538.78;5394034;32;34900;-86
2023/01/31 08:32:28;;;;;;;;;;;;;;;4.74;58.12;100525.53;5398121;32;34025;-70
2023/01/31 08:35:30;;;;;;;;;;;;;;;4.47;58.81;100547.56;5385169;32;34270;-70
2023/01/31 08:38:32;;;;;;;;;;;;;;;5.07;58.19;100565.03;5410850;32;31652;-72
2023/01/31 08:41:34;;;;;;;;;;;;;;;4.77;58.21;100559.34;5393729;32;34039;-74
2023/01/31 08:44:37;;;;;;;;;;;;;;;4.92;58.37;100566.09;5381268;32;35913;-73
2023/01/31 08:47:39;;;;;;;;;;;;;;;5.31;57.57;100571.63;5395877;32;36160;-78
2023/01/31 08:50:41;;;;;;;;;;;;;;;5.24;58.22;100578.69;5400797;32;35035;-71
2023/01/31 08:53:43;;;;;;;;;;;;;;;5.06;57.99;100582.41;5412587;32;45297;-74
2023/01/31 08:56:45;;;;;;;;;;;;;;;4.96;58.76;100574.72;5388224;32;35611;-72
2023/01/31 08:59:49;;;;;;;;;;;;;;;5.03;58.80;100594.62;5408271;32;34273;-73
2023/01/31 09:02:55;;;;;;;;;;;;;;;5.60;56.78;100590.31;5393671;32;34588;-73
2023/01/31 09:05:58;;;;;;;;;;;;;;;5.72;56.15;100595.31;5399265;32;35864;-72
2023/01/31 09:09:00;;;;;;;;;;;;;;;5.12;58.06;100605.75;5403333;32;37434;-73
2023/01/31 09:12:03;;;;;;;;;;;;;;;4.54;59.77;100616.03;5386281;32;34036;-76
2023/01/31 09:15:05;;;;;;;;;;;;;;;4.76;59.17;100617.50;5410222;32;35302;-73
2023/01/31 09:18:07;;;;;;;;;;;;;;;5.35;57.90;100610.69;5393275;32;35463;-75
2023/01/31 09:21:10;;;;;;;;;;;;;;;5.19;57.77;100614.38;5410410;32;33400;-74
2023/01/31 09:24:12;;;;;;;;;;;;;;;5.04;58.95;100615.44;5391121;32;35490;-76
2023/01/31 09:27:14;;;;;;;;;;;;;;;5.30;57.45;100594.25;5397662;32;33537;-74
2023/01/31 09:30:16;;;;;;;;;;;;;;;5.19;57.70;100614.38;5404923;32;34358;-75
2023/01/31 09:33:19;;;;;;;;;;;;;;;5.10;57.58;100617.09;5383546;32;35305;-77
2023/01/31 09:36:23;;;;;;;;;;;;;;;5.26;57.48;100621.22;5400885;32;35648;-73
2023/01/31 09:39:26;;;;;;;;;;;;;;;5.54;55.93;100602.56;5385596;32;34375;-82
2023/01/31 09:42:43;;;;;;;;;;;;;;;5.71;55.28;100617.06;5395132;32;34132;-83
2023/01/31 09:45:45;;;;;;;;;;;;;;;5.52;56.70;100617.38;5399521;32;44513;-76
2023/01/31 09:48:48;;;;;;;;;;;;;;;5.23;57.67;100631.69;5398851;32;34150;-75
2023/01/31 09:52:08;;;;;;;;;;;;;;;6.27;55.52;100624.91;5409292;32;34234;-75
2023/01/31 09:55:14;;;;;;;;;;;;;;;6.04;55.63;100614.84;5394691;32;34607;-75
2023/01/31 09:58:23;;;;;;;;;;;;;;;6.23;54.74;100631.03;5396954;32;44389;-77
2023/01/31 10:01:29;;;;;;;;;;;;;;;5.65;56.91;100630.22;5393659;32;36198;-84
2023/01/31 10:04:50;;;;;;;;;;;;;;;6.07;56.18;100638.28;5385577;32;33889;-75
2023/01/31 10:08:01;;;;;;;;;;;;;;;5.84;57.04;100643.81;5403842;32;46448;-76
2023/01/31 10:11:05;;;;;;;;;;;;;;;6.10;56.23;100637.37;5394127;32;35909;-75
2023/01/31 10:14:15;;;;;;;;;;;;;;;5.24;58.39;100636.03;5393228;32;34269;-80
2023/01/31 10:17:20;;;;;;;;;;;;;;;5.59;57.88;100639.88;5397305;32;44498;-85
2023/01/31 10:20:31;;;;;;;;;;;;;;;5.03;59.10;100654.53;5410496;32;34354;-76
2023/01/31 10:23:43;;;;;;;;;;;;;;;5.38;59.10;100643.66;5416180;32;34218;-92
2023/01/31 10:26:45;;;;;;;;;;;;;;;6.03;57.03;100625.31;5397482;32;44782;-73
2023/01/31 10:29:49;;;;;;;;;;;;;;;5.92;55.71;100623.72;5407614;32;33500;-83
2023/01/31 10:32:54;;;;;;;;;;;;;;;6.46;54.22;100628.03;5394728;32;34686;-77
2023/01/31 10:35:56;;;;;;;;;;;;;;;6.47;52.90;100617.56;5411004;32;34530;-76
2023/01/31 10:39:16;;;;;;;;;;;;;;;8.25;47.42;100604.00;5409714;32;34452;-74
2023/01/31 10:42:32;;;;;;;;;;;;;;;8.35;46.88;100609.84;5390933;32;44454;-71
2023/01/31 10:45:34;;;;;;;;;;;;;;;7.66;48.83;100606.31;5411270;32;34313;-77
2023/01/31 10:48:36;;;;;;;;;;;;;;;9.15;45.56;100609.38;5398575;32;34880;-81
2023/01/31 10:51:46;;;;;;;;;;;;;;;9.22;44.09;100617.91;5400624;32;33003;-75
2023/01/31 10:54:54;;;;;;;;;;;;;;;9.50;42.95;100617.94;5406296;32;44563;-73
2023/01/31 10:57:56;;;;;;;;;;;;;;;8.85;44.03;100610.25;5389021;32;38091;-74
2023/01/31 11:00:58;;;;;;;;;;;;;;;7.07;48.17;100608.53;5410525;32;35454;-71
2023/01/31 11:04:00;;;;;;;;;;;;;;;7.61;47.51;100610.81;5383016;32;34267;-75
2023/01/31 11:07:02;;;;;;;;;;;;;;;7.67;47.43;100599.34;5406052;32;34504;-75
2023/01/31 11:10:21;;;;;;;;;;;;;;;8.95;43.70;100585.47;5397636;32;35199;-81
2023/01/31 11:13:24;;;;;;;;;;;;;;;8.15;44.87;100579.81;5390357;32;34065;-80
2023/01/31 11:16:27;;;;;;;;;;;;;;;8.12;45.44;100586.91;5410303;32;34325;-81
2023/01/31 11:19:32;;;;;;;;;;;;;;;7.18;46.74;100590.88;5384263;32;34256;-81
2023/01/31 11:22:34;;;;;;;;;;;;;;;7.46;47.04;100590.22;5408475;32;35321;-81
2023/01/31 11:25:36;;;;;;;;;;;;;;;7.06;46.47;100575.44;5384318;32;34176;-81
2023/01/31 11:28:39;;;;;;;;;;;;;;;8.13;44.54;100571.12;5409641;32;35383;-81
2023/01/31 11:31:44;;;;;;;;;;;;;;;8.80;43.17;100570.22;5399356;32;34432;-81
2023/01/31 11:34:57;;;;;;;;;;;;;;;9.04;41.51;100572.13;5395025;32;44640;-76
2023/01/31 11:37:59;;;;;;;;;;;;;;;9.22;41.68;100570.72;5407245;32;35582;-77
2023/01/31 11:41:00;;;;;;;;;;;;;;;9.51;39.39;100559.28;5399018;32;35557;-88
2023/01/31 11:44:07;;;;;;;;;;;;;;;7.95;42.43;100560.28;5389258;32;34706;-89
2023/01/31 11:47:10;;;;;;;;;;;;;;;8.65;41.35;100567.13;5395848;32;34715;-73
2023/01/31 11:50:18;;;;;;;;;;;;;;;7.75;43.07;100571.25;5400150;32;35689;-74
2023/01/31 11:53:22;;;;;;;;;;;;;;;7.94;42.38;100546.34;5410901;32;34443;-70
2023/01/31 11:56:27;;;;;;;;;;;;;;;8.01;41.30;100560.13;5391277;32;34360;-73
2023/01/31 11:59:29;;;;;;;;;;;;;;;8.60;40.71;100557.69;5401507;32;34240;-77
2023/01/31 12:02:31;;;;;;;;;;;;;;;6.94;42.60;100565.25;5397500;32;34333;-76
2023/01/31 12:05:35;;;;;;;;;;;;;;;7.39;41.46;100555.53;5405696;32;35265;-81
2023/01/31 12:08:38;;;;;;;;;;;;;;;8.37;39.51;100560.94;5398870;32;34298;-78
2023/01/31 12:11:40;;;;;;;;;;;;;;;7.43;41.07;100564.16;5400772;32;33553;-80
2023/01/31 12:14:42;;;;;;;;;;;;;;;7.60;40.47;100568.13;5403172;32;32277;-75
2023/01/31 12:17:45;;;;;;;;;;;;;;;8.17;40.72;100550.09;5399274;32;44814;-75
2023/01/31 12:20:49;;;;;;;;;;;;;;;7.67;40.86;100542.66;5407522;32;34294;-76
2023/01/31 12:23:59;;;;;;;;;;;;;;;9.04;39.83;100550.28;5381307;32;34376;-78
2023/01/31 12:27:14;;;;;;;;;;;;;;;9.75;38.96;100547.16;5406366;32;34712;-76
2023/01/31 12:30:28;;;;;;;;;;;;;;;10.09;38.07;100538.97;5411700;32;44595;-74
2023/01/31 12:33:36;;;;;;;;;;;;;;;9.36;39.43;100546.69;5407953;32;34363;-92
2023/01/31 12:36:52;;;;;;;;;;;;;;;9.12;39.48;100543.91;5415482;32;33483;-87
2023/01/31 12:39:54;;;;;;;;;;;;;;;7.55;41.86;100551.66;5412150;32;35846;-92
2023/01/31 12:42:57;;;;;;;;;;;;;;;7.29;43.28;100552.28;5395521;32;34192;-81
2023/01/31 12:46:08;;;;;;;;;;;;;;;7.64;42.64;100547.94;5396434;32;34773;-88
2023/01/31 12:49:29;;;;;;;;;;;;;;;7.22;43.60;100544.63;5397110;32;34215;-74
2023/01/31 12:52:31;;;;;;;;;;;;;;;7.49;42.94;100550.94;5408155;32;35312;-74
2023/01/31 12:55:38;;;;;;;;;;;;;;;7.21;43.12;100572.50;5394595;32;35270;-80
2023/01/31 12:58:48;;;;;;;;;;;;;;;6.91;45.27;100575.78;5412187;32;36052;-80
2023/01/31 13:01:56;;;;;;;;;;;;;;;6.71;46.11;100577.06;5405737;32;44696;-83
2023/01/31 13:05:01;;;;;;;;;;;;;;;6.63;46.90;100567.62;5398268;32;35632;-79
2023/01/31 13:08:25;;;;;;;;;;;;;;;7.13;46.72;100592.72;5396891;32;35348;-85
2023/01/31 13:11:32;;;;;;;;;;;;;;;7.08;47.31;100597.16;5404656;32;37028;-78
2023/01/31 13:14:40;;;;;;;;;;;;;;;6.80;47.75;100604.72;5403420;32;36690;-80
2023/01/31 13:17:42;;;;;;;;;;;;;;;6.72;46.31;100611.88;5395592;32;35699;-74
2023/01/31 13:20:45;;;;;;;;;;;;;;;6.45;46.75;100610.66;5403754;32;45003;-75
2023/01/31 13:23:51;;;;;;;;;;;;;;;6.63;47.55;100622.47;5393480;32;32987;-81
2023/01/31 13:27:10;;;;;;;;;;;;;;;6.87;47.59;100624.63;5401921;32;34775;-78
2023/01/31 13:30:22;;;;;;;;;;;;;;;7.46;45.87;100625.09;5414264;32;43412;-76
2023/01/31 13:33:36;;;;;;;;;;;;;;;8.27;45.25;100622.28;5391636;32;34773;-77
2023/01/31 13:36:45;;;;;;;;;;;;;;;8.84;43.64;100619.03;5391493;32;35642;-76
2023/01/31 13:39:47;;;;;;;;;;;;;;;10.66;40.17;100632.47;5412933;32;44582;-76
2023/01/31 13:42:52;;;;;;;;;;;;;;;8.85;43.07;100623.37;5381453;32;38072;-82
2023/01/31 13:45:55;;;;;;;;;;;;;;;9.15;43.34;100627.72;5405140;32;34396;-81
2023/01/31 13:48:58;;;;;;;;;;;;;;;8.37;44.10;100634.25;5397513;32;35786;-79
2023/01/31 13:52:01;;;;;;;;;;;;;;;7.80;45.50;100646.13;5393539;32;33900;-87
2023/01/31 13:55:06;;;;;;;;;;;;;;;7.59;45.01;100634.38;5403257;32;35742;-75
2023/01/31 13:58:18;;;;;;;;;;;;;;;7.77;45.01;100638.31;5399626;32;33246;-79
2023/01/31 14:01:23;;;;;;;;;;;;;;;6.73;46.38;100645.78;5411477;32;44570;-73
2023/01/31 14:04:33;;;;;;;;;;;;;;;7.15;45.89;100640.63;5396482;32;35794;-72
2023/01/31 14:07:35;;;;;;;;;;;;;;;7.69;44.88;100642.03;5383063;32;34588;-74
2023/01/31 14:10:41;;;;;;;;;;;;;;;7.08;46.39;100652.06;5369857;32;888693;-79
2023/01/31 14:14:06;;;;;;;;;;;;;;;7.38;46.32;100665.38;5395586;32;44479;-74
2023/01/31 14:17:12;;;;;;;;;;;;;;;7.42;46.38;100660.06;5377954;32;35433;-74
2023/01/31 14:20:25;;;;;;;;;;;;;;;7.13;47.01;100667.66;5387163;32;43712;-90
2023/01/31 14:23:31;;;;;;;;;;;;;;;7.11;47.65;100672.06;5401117;32;34315;-87
2023/01/31 14:26:42;;;;;;;;;;;;;;;8.52;45.10;100659.22;5374165;32;34111;-75
2023/01/31 14:29:45;;;;;;;;;;;;;;;7.40;47.25;100674.91;5402639;32;45339;-75
2023/01/31 14:32:47;;;;;;;;;;;;;;;7.53;47.22;100665.03;5401173;32;34150;-83
2023/01/31 14:35:58;;;;;;;;;;;;;;;7.46;48.01;100664.31;5388926;32;34217;-82
2023/01/31 14:39:12;;;;;;;;;;;;;;;7.59;48.25;100667.53;5407225;32;34103;-74
2023/01/31 14:42:20;;;;;;;;;;;;;;;6.79;50.87;100681.37;5377428;32;44576;-79
2023/01/31 14:45:22;;;;;;;;;;;;;;;6.65;51.51;100665.97;5391703;32;34418;-73
2023/01/31 14:48:43;;;;;;;;;;;;;;;6.64;52.06;100666.00;5411012;32;35159;-74
2023/01/31 14:51:55;;;;;;;;;;;;;;;7.10;50.98;100670.34;5391917;32;45138;-86
2023/01/31 14:55:06;;;;;;;;;;;;;;;7.03;52.22;100674.84;5409704;32;34387;-77
2023/01/31 14:58:12;;;;;;;;;;;;;;;6.68;53.56;100688.56;5393498;32;34646;-78
2023/01/31 15:01:16;;;;;;;;;;;;;;;6.53;54.56;100678.41;5398149;32;46433;-80
2023/01/31 15:04:19;;;;;;;;;;;;;;;7.11;53.72;100661.59;5409375;32;35722;-80
2023/01/31 15:07:21;;;;;;;;;;;;;;;7.12;53.61;100668.56;5387223;32;34579;-82
2023/01/31 15:10:42;;;;;;;;;;;;;;;7.23;53.08;100670.06;5406581;32;35960;-79
2023/01/31 15:13:48;;;;;;;;;;;;;;;6.24;56.08;100667.56;5388437;32;44668;-80
2023/01/31 15:16:54;;;;;;;;;;;;;;;6.95;54.25;100663.66;5392231;32;37632;-88
2023/01/31 15:19:58;;;;;;;;;;;;;;;6.85;54.04;100665.59;5394420;32;35381;-78
2023/01/31 15:23:03;;;;;;;;;;;;;;;6.63;54.90;100672.97;5373843;32;34187;-88
2023/01/31 15:26:07;;;;;;;;;;;;;;;6.39;55.63;100681.25;5397423;32;34100;-78
2023/01/31 15:29:11;;;;;;;;;;;;;;;6.42;56.69;100675.97;5392810;32;34239;-87
2023/01/31 15:32:48;;;;;;;;;;;;;;;5.26;60.02;100688.09;5412762;32;43096;-78
2023/01/31 15:35:53;;;;;;;;;;;;;;;5.82;59.30;100676.06;5375884;32;44616;-90
2023/01/31 15:39:03;;;;;;;;;;;;;;;5.97;59.27;100692.34;5396495;32;35613;-87
2023/01/31 15:42:25;;;;;;;;;;;;;;;6.26;58.18;100680.59;5397200;32;34707;-78
2023/01/31 15:45:28;;;;;;;;;;;;;;;6.43;57.32;100678.53;5384091;32;35202;-87
2023/01/31 15:48:30;;;;;;;;;;;;;;;6.18;58.38;100666.78;5400564;32;34469;-89
2023/01/31 15:51:32;;;;;;;;;;;;;;;6.07;59.16;100672.22;5400038;32;35543;-77
2023/01/31 15:54:34;;;;;;;;;;;;;;;6.80;57.46;100672.66;5400027;32;35093;-78
2023/01/31 15:57:41;;;;;;;;;;;;;;;6.83;57.16;100671.72;5410433;32;34374;-87
2023/01/31 16:00:43;;;;;;;;;;;;;;;6.59;58.05;100673.94;5383822;32;44637;-78
2023/01/31 16:03:53;;;;;;;;;;;;;;;6.03;59.31;100675.75;5405882;32;34425;-90
2023/01/31 16:06:55;;;;;;;;;;;;;;;6.94;57.46;100675.84;5394897;32;34940;-78
2023/01/31 16:10:00;;;;;;;;;;;;;;;6.37;58.51;100662.97;5400730;32;34946;-87